Main page
METAR-TAF:

METAR-TAF

Airports :

Yasuj Airport

Yasuj, Iran

latitude: 30-41-49N, longitude: 051-33E, elevation: 1825 m

Current weather observation

The report was made 12 minutes ago, at 12:00 UTC
Wind 16 kt from the West
Temperature 15°C
Humidity 39%
Pressure 1019 hPa
Visibility 10 km or more
Scattered clouds at a height of 4000 ft

METAR: OISY 311200Z 28016KT 9999 SCT040 15/01 Q1019

Time: 16:42 (12:12 UTC)


TAF: missing

Weather observations and forecasts of more than 4000 airports (METAR and TAF reports).

The available stations are represented by yellow and red dots on the map.

Hover mouse over dot to see the name of the station.

Then click to see weather observations and forecasts.

To change the map : click on the green buttons with a black cross to zoom in, on the green button with a dash to zoom out, or on the green arrows for adjacent maps.


METAR-TAF: